createdAt,value
2023-01-28T00:00:06.928Z,96256.84
2023-01-28T00:02:36.833Z,96268.03
2023-01-28T00:05:10.084Z,96268.38
2023-01-28T00:07:40.026Z,96267.63
2023-01-28T00:10:10.663Z,96258.03
2023-01-28T00:12:40.236Z,96260.63
2023-01-28T00:15:10.959Z,96265.63
2023-01-28T00:17:40.733Z,96261.59
2023-01-28T00:20:14.480Z,96271.59
2023-01-28T00:22:44.036Z,96246.06
2023-01-28T00:25:13.816Z,96254.50
2023-01-28T00:27:43.727Z,96260.25
2023-01-28T00:30:14.791Z,96261.47
2023-01-28T00:32:44.666Z,96247.69
2023-01-28T00:35:18.311Z,96260.25
2023-01-28T00:37:48.905Z,96261.47
2023-01-28T00:40:18.754Z,96243.13
2023-01-28T00:42:48.325Z,96254.84
2023-01-28T00:45:18.550Z,96270.19
2023-01-28T00:47:48.380Z,96263.03
2023-01-28T00:50:21.487Z,96257.25
2023-01-28T00:52:51.409Z,96262.63
2023-01-28T00:55:21.830Z,96268.22
2023-01-28T00:57:51.586Z,96254.84
2023-01-28T01:00:27.282Z,96257.69
2023-01-28T01:02:57.586Z,96255.28
2023-01-28T01:05:29.773Z,96260.88
2023-01-28T01:07:59.284Z,96235.94
2023-01-28T01:10:29.188Z,96260.84
2023-01-28T01:12:59.270Z,96242.91
2023-01-28T01:15:29.074Z,96264.19
2023-01-28T01:17:59.363Z,96270.97
2023-01-28T01:20:33.680Z,96264.03
2023-01-28T01:23:03.193Z,96272.41
2023-01-28T01:25:32.735Z,96273.19
2023-01-28T01:28:02.276Z,96275.94
2023-01-28T01:30:31.838Z,96273.34
2023-01-28T01:33:01.398Z,96273.97
2023-01-28T01:35:33.519Z,96281.94
2023-01-28T01:38:03.079Z,96267.56
2023-01-28T01:40:33.704Z,96278.47
2023-01-28T01:43:03.435Z,96286.44
2023-01-28T01:45:36.712Z,96258.50
2023-01-28T01:48:12.288Z,96287.22
2023-01-28T01:50:57.137Z,96283.84
2023-01-28T01:53:29.700Z,96285.84
2023-01-28T01:56:03.921Z,96179.94
2023-01-28T01:58:38.359Z,96294.63
2023-01-28T02:01:09.857Z,96280.25
2023-01-28T02:03:46.755Z,96262.31
2023-01-28T02:06:18.965Z,96295.22
2023-01-28T02:08:48.519Z,96293.47
2023-01-28T02:11:20.164Z,96298.22
2023-01-28T02:13:56.903Z,96271.72
2023-01-28T02:16:27.546Z,96296.88
2023-01-28T02:18:57.250Z,96304.66
2023-01-28T02:21:58.895Z,96301.88
2023-01-28T02:24:54.623Z,96300.81
2023-01-28T02:27:32.989Z,96295.44
2023-01-28T02:30:13.091Z,96300.03
2023-01-28T02:32:48.649Z,96270.72
2023-01-28T02:35:25.309Z,96291.91
2023-01-28T02:37:58.310Z,96291.91
2023-01-28T02:40:58.515Z,96308.22
2023-01-28T02:43:36.104Z,96307.44
2023-01-28T02:46:30.994Z,96305.88
2023-01-28T02:49:01.467Z,96291.66
2023-01-28T02:51:43.100Z,96311.81
2023-01-28T02:54:17.323Z,96267.28
2023-01-28T02:56:55.662Z,96308.78
2023-01-28T02:59:37.149Z,96311.81
2023-01-28T03:02:21.932Z,96297.81
2023-01-28T03:04:57.514Z,96312.38
2023-01-28T03:07:30.533Z,96316.41
2023-01-28T03:10:04.344Z,96313.03
2023-01-28T03:12:48.001Z,96275.25
2023-01-28T03:15:32.691Z,96305.97
2023-01-28T03:18:22.539Z,96307.78
2023-01-28T03:21:10.583Z,96324.56
2023-01-28T03:23:56.939Z,96325.31
2023-01-28T03:26:42.091Z,96323.91
2023-01-28T03:29:27.845Z,96334.28
2023-01-28T03:32:22.873Z,96324.53
2023-01-28T03:35:08.761Z,96333.75
2023-01-28T03:37:38.491Z,96334.88
2023-01-28T03:40:15.853Z,96329.28
2023-01-28T03:42:46.575Z,96328.09
2023-01-28T03:45:35.926Z,96332.69
2023-01-28T03:48:08.185Z,96323.69
2023-01-28T03:50:40.445Z,96253.97
2023-01-28T03:53:16.936Z,96332.91
2023-01-28T03:55:56.688Z,96337.06
2023-01-28T03:58:47.884Z,96336.03
2023-01-28T04:01:18.520Z,96334.97
2023-01-28T04:03:48.326Z,96340.06
2023-01-28T04:06:24.927Z,96332.72
2023-01-28T04:09:24.108Z,96338.66
2023-01-28T04:12:07.887Z,96345.47
2023-01-28T04:14:44.371Z,96341.22
2023-01-28T04:17:18.423Z,96349.56
2023-01-28T04:19:49.298Z,96340.81
2023-01-28T04:22:22.965Z,96349.97
2023-01-28T04:24:53.750Z,96345.75
2023-01-28T04:27:24.206Z,96341.97
2023-01-28T04:29:53.945Z,96354.16
2023-01-28T04:32:40.835Z,96353.16
2023-01-28T04:35:33.160Z,96357.53
2023-01-28T04:38:30.106Z,96361.78
2023-01-28T04:41:12.830Z,96360.75
2023-01-28T04:43:42.544Z,96360.50
2023-01-28T04:46:29.799Z,96363.44
2023-01-28T04:49:12.312Z,96355.47
2023-01-28T04:51:53.243Z,96365.72
2023-01-28T04:54:34.173Z,96367.31
2023-01-28T04:57:05.735Z,96367.31
2023-01-28T04:59:35.843Z,96380.22
2023-01-28T05:02:05.485Z,96361.44
2023-01-28T05:04:35.199Z,96376.00
2023-01-28T05:07:04.965Z,96379.00
2023-01-28T05:09:38.814Z,96330.75
2023-01-28T05:12:09.080Z,96382.50
2023-01-28T05:14:40.680Z,96311.13
2023-01-28T05:17:16.665Z,96347.38
2023-01-28T05:19:47.727Z,96353.53
2023-01-28T05:22:25.834Z,96370.03
2023-01-28T05:25:15.765Z,96371.38
2023-01-28T05:27:55.240Z,96304.19
2023-01-28T05:30:25.347Z,96390.53
2023-01-28T05:32:58.516Z,96320.31
2023-01-28T05:35:28.517Z,96382.19
2023-01-28T05:37:58.135Z,96383.59
2023-01-28T05:40:30.492Z,96333.81
2023-01-28T05:43:00.412Z,96356.03
2023-01-28T05:45:40.810Z,96401.84
2023-01-28T05:48:17.043Z,96410.47
2023-01-28T05:51:21.912Z,96409.53
2023-01-28T05:53:57.574Z,96418.19
2023-01-28T05:56:29.744Z,96415.56
2023-01-28T05:58:59.343Z,96414.97
2023-01-28T06:01:29.007Z,96393.59
2023-01-28T06:03:59.285Z,96419.19
2023-01-28T06:06:31.774Z,96416.94
2023-01-28T06:09:01.387Z,96391.00
2023-01-28T06:11:36.166Z,96406.16
2023-01-28T06:14:08.054Z,96392.94
2023-01-28T06:17:06.575Z,96427.31
2023-01-28T06:19:56.389Z,96428.34
2023-01-28T06:22:26.115Z,96435.06
2023-01-28T06:24:55.882Z,96429.63
2023-01-28T06:27:28.123Z,96440.97
2023-01-28T06:29:57.804Z,96374.66
2023-01-28T06:32:27.577Z,96441.22
2023-01-28T06:34:57.607Z,96443.44
2023-01-28T06:37:27.183Z,96437.88
2023-01-28T06:39:56.746Z,96375.91
2023-01-28T06:42:28.895Z,96451.22
2023-01-28T06:44:58.570Z,96457.78
2023-01-28T06:47:28.250Z,96451.41
2023-01-28T06:49:57.806Z,96454.56
2023-01-28T06:52:27.496Z,96457.97
2023-01-28T06:54:57.725Z,96454.78
2023-01-28T06:57:29.969Z,96452.19
2023-01-28T06:59:59.543Z,96449.59
2023-01-28T07:02:29.117Z,96460.41
2023-01-28T07:04:58.673Z,96440.41
2023-01-28T07:07:28.390Z,96445.66
2023-01-28T07:09:58.143Z,96470.53
2023-01-28T07:12:30.367Z,96466.06
2023-01-28T07:15:00.274Z,96472.63
2023-01-28T07:17:29.877Z,96471.81
2023-01-28T07:19:59.474Z,96483.97
2023-01-28T07:22:29.109Z,96477.75
2023-01-28T07:24:59.143Z,96484.72
2023-01-28T07:27:31.276Z,96463.91
2023-01-28T07:30:00.856Z,96457.78
2023-01-28T07:32:30.509Z,96482.94
2023-01-28T07:35:00.100Z,96398.91
2023-01-28T07:37:29.712Z,96484.41
2023-01-28T07:39:59.299Z,96424.03
2023-01-28T07:42:31.437Z,96491.56
2023-01-28T07:45:06.905Z,96497.09
2023-01-28T07:47:36.494Z,96491.13
2023-01-28T07:50:06.501Z,96511.69
2023-01-28T07:52:41.693Z,96500.34
2023-01-28T07:55:11.966Z,96505.81
2023-01-28T07:57:51.325Z,96502.53
2023-01-28T08:00:22.063Z,96508.09
2023-01-28T08:02:52.271Z,96511.38
2023-01-28T08:05:23.670Z,96509.69
2023-01-28T08:07:53.389Z,96510.59
2023-01-28T08:10:23.028Z,96463.41
2023-01-28T08:13:00.462Z,96516.19
2023-01-28T08:15:30.534Z,96428.44
2023-01-28T08:18:01.490Z,96528.03
2023-01-28T08:20:32.551Z,96507.75
2023-01-28T08:23:09.735Z,96449.44
2023-01-28T08:25:39.681Z,96531.59
2023-01-28T08:28:12.428Z,96535.34
2023-01-28T08:30:42.572Z,96521.56
2023-01-28T08:33:14.183Z,96539.44
2023-01-28T08:35:43.917Z,96536.44
2023-01-28T08:38:15.455Z,96544.66
2023-01-28T08:40:45.117Z,96544.69
2023-01-28T08:43:17.272Z,96543.22
2023-01-28T08:45:46.844Z,96427.84
2023-01-28T08:48:19.027Z,96534.22
2023-01-28T08:50:48.907Z,96521.25
2023-01-28T08:53:20.771Z,96547.63
2023-01-28T08:55:50.570Z,96547.25
2023-01-28T08:58:22.728Z,96552.22
2023-01-28T09:00:53.336Z,96552.69
2023-01-28T09:03:22.866Z,96481.72
2023-01-28T09:05:52.436Z,96554.88
2023-01-28T09:08:24.272Z,96467.03
2023-01-28T09:10:58.029Z,96536.28
2023-01-28T09:13:31.842Z,96541.31
2023-01-28T09:16:01.461Z,96552.72
2023-01-28T09:18:31.041Z,96555.47
2023-01-28T09:21:00.642Z,96566.06
2023-01-28T09:23:30.198Z,96537.25
2023-01-28T09:26:03.126Z,96566.53
2023-01-28T09:28:35.977Z,96470.47
2023-01-28T09:31:06.290Z,96548.69
2023-01-28T09:40:15.744Z,96536.56
2023-01-28T09:44:31.706Z,96535.13
2023-01-28T09:47:05.498Z,96541.00
2023-01-28T09:49:43.345Z,96540.88
2023-01-28T09:52:18.446Z,96540.88
2023-01-28T09:54:51.543Z,96541.69
2023-01-28T09:57:26.832Z,96547.75
2023-01-28T10:00:02.159Z,96544.53
2023-01-28T10:02:58.114Z,96544.00
2023-01-28T10:05:40.891Z,96540.63
2023-01-28T10:08:31.828Z,96539.97
2023-01-28T10:11:14.938Z,96539.09
2023-01-28T10:13:53.550Z,96523.69
2023-01-28T10:16:34.258Z,96519.22
2023-01-28T10:19:10.227Z,96503.56
2023-01-28T10:21:45.755Z,96522.19
2023-01-28T10:24:25.720Z,96521.13
2023-01-28T10:26:56.194Z,96523.03
2023-01-28T10:29:31.934Z,96523.63
2023-01-28T10:53:18.367Z,96506.22
2023-01-28T10:55:55.134Z,96505.72
2023-01-28T10:58:28.162Z,96514.44
2023-01-28T11:01:03.243Z,96514.69
2023-01-28T11:03:35.325Z,96509.91
2023-01-28T11:06:05.943Z,96508.13
2023-01-28T11:08:47.436Z,96505.00
2023-01-28T11:11:17.911Z,96507.03
2023-01-28T11:13:55.637Z,96513.59
2023-01-28T11:16:25.695Z,96501.75
2023-01-28T11:18:58.259Z,96494.91
2023-01-28T11:21:32.045Z,96502.63
2023-01-28T11:24:08.532Z,96503.50
2023-01-28T11:26:42.631Z,96503.53
2023-01-28T11:29:33.925Z,96509.47
2023-01-28T11:33:40.538Z,96515.63
2023-01-28T11:36:16.123Z,96504.78
2023-01-28T11:38:57.228Z,96511.06
2023-01-28T11:41:30.997Z,96510.72
2023-01-28T11:44:02.339Z,96510.28
2023-01-28T11:46:47.989Z,96511.06
2023-01-28T11:49:29.238Z,96507.25
2023-01-28T11:52:05.894Z,96506.47
2023-01-28T11:54:50.359Z,96498.75
2023-01-28T11:57:27.295Z,96498.88
2023-01-28T12:00:12.435Z,96497.06
2023-01-28T12:03:00.518Z,96500.56
2023-01-28T12:05:48.937Z,96505.94
2023-01-28T12:08:25.444Z,96501.31
2023-01-28T12:11:21.536Z,96487.69
2023-01-28T12:14:08.387Z,96504.44
2023-01-28T12:16:48.214Z,96502.88
2023-01-28T12:19:31.500Z,96504.13
2023-01-28T12:22:18.801Z,96499.56
2023-01-28T12:25:05.594Z,96506.81
2023-01-28T12:27:48.129Z,96499.75
2023-01-28T12:30:27.538Z,96494.75
2023-01-28T12:33:11.591Z,96500.13
2023-01-28T12:36:02.660Z,96505.94
2023-01-28T12:38:47.203Z,96500.56
2023-01-28T12:41:19.557Z,96499.75
2023-01-28T12:43:56.927Z,96500.56
2023-01-28T12:46:46.228Z,96508.25
2023-01-28T12:49:22.627Z,96506.69
2023-01-28T12:52:02.788Z,96505.13
2023-01-28T12:54:39.858Z,96501.78
2023-01-28T12:57:15.873Z,96505.13
2023-01-28T12:59:51.329Z,96497.53
2023-01-28T13:02:28.565Z,96513.63
2023-01-28T13:05:06.696Z,96510.16
2023-01-28T13:07:41.989Z,96501.31
2023-01-28T13:10:25.286Z,96499.09
2023-01-28T13:12:56.065Z,96501.78
2023-01-28T13:15:27.470Z,96503.34
2023-01-28T13:18:01.596Z,96502.25
2023-01-28T13:20:40.718Z,96506.81
2023-01-28T13:23:28.075Z,96502.72
2023-01-28T13:26:11.652Z,96508.09
2023-01-28T13:28:41.346Z,96510.09
2023-01-28T13:31:14.395Z,96508.97
2023-01-28T13:33:45.054Z,96511.22
2023-01-28T13:36:28.631Z,96485.66
2023-01-28T13:39:07.075Z,96512.66
2023-01-28T13:41:45.859Z,96515.44
2023-01-28T13:44:31.570Z,96526.88
2023-01-28T13:47:16.636Z,96524.31
2023-01-28T13:49:49.656Z,96527.31
2023-01-28T13:52:23.130Z,96536.91
2023-01-28T13:54:57.885Z,96532.00
2023-01-28T13:57:59.851Z,96533.13
2023-01-28T14:00:39.289Z,96534.25
2023-01-28T14:03:39.885Z,96536.91
2023-01-28T14:06:52.830Z,96540.06
2023-01-28T14:09:39.839Z,96541.16
2023-01-28T14:12:35.134Z,96539.28
2023-01-28T14:15:46.225Z,96539.59
2023-01-28T14:18:28.143Z,96540.06
2023-01-28T14:21:03.431Z,96547.34
2023-01-28T14:23:33.808Z,96542.72
2023-01-28T14:26:13.814Z,96544.66
2023-01-28T14:28:51.657Z,96552.69
2023-01-28T14:31:29.431Z,96552.22
2023-01-28T14:34:08.828Z,96553.47
2023-01-28T14:36:41.846Z,96550.00
2023-01-28T14:39:19.425Z,96548.91
2023-01-28T14:41:52.455Z,96557.72
2023-01-28T14:44:31.711Z,96556.16
2023-01-28T14:47:23.138Z,96551.56
2023-01-28T14:50:08.136Z,96559.63
2023-01-28T14:53:05.150Z,96556.16
2023-01-28T14:55:43.300Z,96555.03
2023-01-28T14:58:22.526Z,96547.22
2023-01-28T15:00:59.637Z,96566.22
2023-01-28T15:03:30.854Z,96558.38
2023-01-28T15:06:16.297Z,96567.78
2023-01-28T15:08:45.965Z,96571.69
2023-01-28T15:11:18.650Z,96573.63
2023-01-28T15:13:50.633Z,96576.28
2023-01-28T15:16:23.203Z,96577.41
2023-01-28T15:18:53.724Z,96577.41
2023-01-28T15:21:28.349Z,96565.31
2023-01-28T15:24:01.160Z,96570.94
2023-01-28T15:26:33.579Z,96563.31
2023-01-28T15:29:03.389Z,96579.31
2023-01-28T15:31:35.117Z,96580.88
2023-01-28T15:34:06.590Z,96587.03
2023-01-28T15:36:38.865Z,96591.59
2023-01-28T15:39:17.133Z,96588.16
2023-01-28T15:41:50.415Z,96599.97
2023-01-28T15:44:21.958Z,96611.19
2023-01-28T15:46:51.534Z,96613.06
2023-01-28T15:49:21.147Z,96608.50
2023-01-28T15:51:56.689Z,96613.06
2023-01-28T15:54:26.976Z,96615.44
2023-01-28T15:56:56.605Z,96619.00
2023-01-28T15:59:31.258Z,96611.78
2023-01-28T16:02:20.717Z,96618.25
2023-01-28T16:05:00.938Z,96617.25
2023-01-28T16:07:36.076Z,96623.84
2023-01-28T16:10:06.812Z,96619.81
2023-01-28T16:12:36.371Z,96623.00
2023-01-28T16:15:07.464Z,96603.94
2023-01-28T16:17:43.859Z,96624.22
2023-01-28T16:20:23.889Z,96625.03
2023-01-28T16:22:59.064Z,96624.69
2023-01-28T16:25:32.307Z,96633.53
2023-01-28T16:28:03.765Z,96638.56
2023-01-28T16:30:33.533Z,96639.03
2023-01-28T16:33:03.079Z,96642.81
2023-01-28T16:35:56.525Z,96648.28
2023-01-28T16:40:56.028Z,96647.66
2023-01-28T16:43:25.522Z,96647.66
2023-01-28T16:45:55.389Z,96651.09
2023-01-28T16:48:25.206Z,96650.78
2023-01-28T16:50:54.692Z,96650.78
2023-01-28T16:53:34.992Z,96657.38
2023-01-28T16:56:05.231Z,96663.19
2023-01-28T16:58:34.760Z,96661.72
2023-01-28T17:01:04.396Z,96663.28
2023-01-28T17:03:33.936Z,96665.66
2023-01-28T17:06:03.431Z,96665.66
2023-01-28T17:08:35.743Z,96667.22
2023-01-28T17:11:05.231Z,96664.91
2023-01-28T17:13:34.792Z,96665.97
2023-01-28T17:16:05.247Z,96669.78
2023-01-28T17:18:35.074Z,96668.22
2023-01-28T17:21:05.540Z,96670.47
2023-01-28T17:23:38.098Z,96677.38
2023-01-28T17:26:08.892Z,96671.13
2023-01-28T17:28:38.624Z,96657.59
2023-01-28T17:31:08.850Z,96673.94
2023-01-28T17:33:38.514Z,96683.09
2023-01-28T17:36:08.470Z,96687.00
2023-01-28T17:38:40.722Z,96673.59
2023-01-28T17:41:11.767Z,96684.78
2023-01-28T17:43:41.401Z,96687.00
2023-01-28T17:46:14.695Z,96683.22
2023-01-28T17:48:45.764Z,96679.41
2023-01-28T17:51:16.884Z,96683.69
2023-01-28T17:53:51.037Z,96684.44
2023-01-28T17:56:21.992Z,96686.81
2023-01-28T17:58:53.410Z,96691.72
2023-01-28T18:01:23.610Z,96689.06
2023-01-28T18:03:53.986Z,96688.69
2023-01-28T18:06:23.594Z,96684.91
2023-01-28T18:08:55.676Z,96696.44
2023-01-28T18:11:25.247Z,96691.06
2023-01-28T18:13:54.793Z,96696.09
2023-01-28T18:16:24.972Z,96701.00
2023-01-28T18:18:54.700Z,96699.13
2023-01-28T18:21:43.035Z,96700.25
2023-01-28T18:24:23.775Z,96707.50
2023-01-28T18:26:55.434Z,96707.50
2023-01-28T18:29:25.088Z,96712.53
2023-01-28T18:31:56.466Z,96706.72
2023-01-28T18:34:27.291Z,96712.88
2023-01-28T18:36:58.010Z,96706.06
2023-01-28T18:39:32.222Z,96698.00
2023-01-28T18:42:02.684Z,96706.50
2023-01-28T18:44:33.342Z,96704.50
2023-01-28T18:47:02.987Z,96710.31
2023-01-28T18:49:32.537Z,96707.47
2023-01-28T18:52:02.111Z,96703.47
2023-01-28T18:55:21.425Z,96714.44
2023-01-28T18:57:51.118Z,96714.22
2023-01-28T19:00:21.917Z,96707.53
2023-01-28T19:02:51.927Z,96719.53
2023-01-28T19:05:21.898Z,96710.00
2023-01-28T19:07:51.462Z,96713.88
2023-01-28T19:10:24.699Z,96715.41
2023-01-28T19:12:55.542Z,96716.16
2023-01-28T19:15:46.109Z,96695.19
2023-01-28T19:18:15.742Z,96704.81
2023-01-28T19:20:45.511Z,96705.84
2023-01-28T19:23:15.166Z,96705.06
2023-01-28T19:25:44.675Z,96708.56
